createdAt,value
2023-02-15T00:00:32.158Z,17.60
2023-02-15T00:01:32.122Z,20.70
2023-02-15T00:02:32.118Z,17.20
2023-02-15T00:03:32.112Z,17.90
2023-02-15T00:04:32.108Z,18.00
2023-02-15T00:05:32.098Z,18.10
2023-02-15T00:06:32.093Z,17.30
2023-02-15T00:07:32.068Z,18.70
2023-02-15T00:08:32.088Z,18.40
2023-02-15T00:09:32.054Z,16.80
2023-02-15T00:10:32.032Z,18.50
2023-02-15T00:11:32.020Z,16.70
2023-02-15T00:12:32.011Z,16.60
2023-02-15T00:13:32.011Z,18.90
2023-02-15T00:14:32.012Z,16.20
2023-02-15T00:15:31.970Z,21.30
2023-02-15T00:16:31.984Z,18.50
2023-02-15T00:17:31.950Z,19.60
2023-02-15T00:18:31.957Z,15.10
2023-02-15T00:19:31.961Z,18.70
2023-02-15T00:20:31.930Z,19.70
2023-02-15T00:21:31.910Z,15.80
2023-02-15T00:22:31.913Z,17.10
2023-02-15T00:23:31.901Z,18.60
2023-02-15T00:24:31.910Z,17.50
2023-02-15T00:25:31.889Z,17.60
2023-02-15T00:26:31.871Z,17.10
2023-02-15T00:27:31.840Z,16.70
2023-02-15T00:28:31.864Z,20.10
2023-02-15T00:29:31.820Z,16.50
2023-02-15T00:30:31.867Z,17.30
2023-02-15T00:31:31.944Z,18.60
2023-02-15T00:32:31.806Z,19.20
2023-02-15T00:33:31.788Z,16.80
2023-02-15T00:34:31.820Z,18.00
2023-02-15T00:35:31.763Z,19.50
2023-02-15T00:36:31.751Z,20.30
2023-02-15T00:37:31.743Z,18.30
2023-02-15T00:38:31.733Z,18.80
2023-02-15T00:39:31.746Z,16.90
2023-02-15T00:40:31.709Z,17.40
2023-02-15T00:41:31.683Z,18.80
2023-02-15T00:42:31.676Z,18.00
2023-02-15T00:43:31.687Z,16.30
2023-02-15T00:44:31.653Z,18.80
2023-02-15T00:45:31.696Z,19.80
2023-02-15T00:46:31.651Z,19.60
2023-02-15T00:47:31.623Z,21.20
2023-02-15T00:48:31.623Z,18.00
2023-02-15T00:49:31.595Z,20.90
2023-02-15T00:50:31.612Z,19.80
2023-02-15T00:51:31.608Z,18.50
2023-02-15T00:52:31.576Z,19.10
2023-02-15T00:53:31.553Z,19.00
2023-02-15T00:54:31.554Z,19.20
2023-02-15T00:55:31.579Z,19.30
2023-02-15T00:56:31.558Z,19.70
2023-02-15T00:57:31.521Z,19.10
2023-02-15T00:58:31.516Z,18.00
2023-02-15T00:59:31.485Z,21.90
2023-02-15T01:00:31.498Z,20.80
2023-02-15T01:01:31.512Z,17.10
2023-02-15T01:02:31.468Z,18.50
2023-02-15T01:03:31.442Z,20.10
2023-02-15T01:04:31.498Z,18.60
2023-02-15T01:05:31.428Z,18.30
2023-02-15T01:06:31.440Z,19.50
2023-02-15T01:07:31.421Z,18.20
2023-02-15T01:08:31.408Z,20.40
2023-02-15T01:09:31.384Z,19.90
2023-02-15T01:10:31.390Z,19.80
2023-02-15T01:11:31.405Z,21.30
2023-02-15T01:12:31.359Z,23.10
2023-02-15T01:13:31.361Z,21.20
2023-02-15T01:14:31.367Z,20.40
2023-02-15T01:15:31.328Z,20.70
2023-02-15T01:16:31.303Z,21.20
2023-02-15T01:17:31.319Z,22.70
2023-02-15T01:18:31.360Z,22.30
2023-02-15T01:19:38.549Z,20.70
2023-02-15T01:20:31.286Z,21.40
2023-02-15T01:21:31.272Z,21.90
2023-02-15T01:22:31.243Z,26.10
2023-02-15T01:23:32.195Z,24.80
2023-02-15T01:24:31.245Z,23.00
2023-02-15T01:25:31.244Z,28.20
2023-02-15T01:26:31.215Z,23.20
2023-02-15T01:27:31.221Z,26.00
2023-02-15T01:28:31.195Z,24.90
2023-02-15T01:29:31.196Z,24.90
2023-02-15T01:30:31.165Z,25.40
2023-02-15T01:31:31.273Z,25.50
2023-02-15T01:32:31.144Z,22.60
2023-02-15T01:33:31.135Z,24.90
2023-02-15T01:34:31.141Z,22.90
2023-02-15T01:35:31.098Z,22.60
2023-02-15T01:36:31.117Z,22.20
2023-02-15T01:37:31.108Z,23.20
2023-02-15T01:38:32.023Z,22.10
2023-02-15T01:39:31.099Z,24.80
2023-02-15T01:40:31.049Z,23.10
2023-02-15T01:41:31.028Z,21.10
2023-02-15T01:42:31.062Z,23.10
2023-02-15T01:43:31.050Z,23.10
2023-02-15T01:44:31.019Z,21.60
2023-02-15T01:45:30.999Z,24.10
2023-02-15T01:46:31.034Z,23.00
2023-02-15T01:47:30.974Z,21.70
2023-02-15T01:48:30.978Z,23.30
2023-02-15T01:49:30.994Z,22.30
2023-02-15T01:50:30.937Z,22.00
2023-02-15T01:51:30.940Z,25.90
2023-02-15T01:52:30.932Z,25.50
2023-02-15T01:53:30.906Z,21.80
2023-02-15T01:54:30.936Z,22.70
2023-02-15T01:55:30.927Z,23.60
2023-02-15T01:56:30.871Z,25.40
2023-02-15T01:57:30.897Z,25.10
2023-02-15T01:58:30.853Z,22.20
2023-02-15T01:59:30.837Z,25.70
2023-02-15T02:00:30.853Z,22.10
2023-02-15T02:01:30.953Z,22.40
2023-02-15T02:02:30.855Z,26.20
2023-02-15T02:03:30.880Z,24.80
2023-02-15T02:04:30.806Z,23.50
2023-02-15T02:05:30.789Z,24.80
2023-02-15T02:06:30.835Z,24.80
2023-02-15T02:07:30.767Z,24.10
2023-02-15T02:08:30.751Z,26.00
2023-02-15T02:09:30.728Z,25.20
2023-02-15T02:10:30.730Z,24.00
2023-02-15T02:11:30.703Z,22.60
2023-02-15T02:12:30.743Z,25.40
2023-02-15T02:13:30.685Z,23.60
2023-02-15T02:14:30.678Z,27.10
2023-02-15T02:15:30.662Z,20.80
2023-02-15T02:16:30.655Z,23.60
2023-02-15T02:17:30.673Z,22.90
2023-02-15T02:18:30.688Z,25.20
2023-02-15T02:19:30.628Z,23.60
2023-02-15T02:20:30.617Z,24.80
2023-02-15T02:21:30.605Z,23.60
2023-02-15T02:22:30.584Z,24.90
2023-02-15T02:23:30.605Z,23.80
2023-02-15T02:24:30.592Z,26.10
2023-02-15T02:25:30.582Z,23.80
2023-02-15T02:26:30.580Z,22.10
2023-02-15T02:27:30.532Z,23.40
2023-02-15T02:28:30.562Z,24.00
2023-02-15T02:29:30.544Z,23.70
2023-02-15T02:30:30.679Z,22.40
2023-02-15T02:31:30.614Z,23.00
2023-02-15T02:32:30.560Z,21.30
2023-02-15T02:33:30.469Z,25.40
2023-02-15T02:34:30.478Z,23.60
2023-02-15T02:35:30.469Z,23.80
2023-02-15T02:36:30.446Z,26.20
2023-02-15T02:37:30.433Z,23.10
2023-02-15T02:38:30.497Z,23.30
2023-02-15T02:39:30.404Z,22.60
2023-02-15T02:40:30.429Z,23.80
2023-02-15T02:41:30.423Z,25.40
2023-02-15T02:42:30.426Z,24.60
2023-02-15T02:43:30.355Z,25.80
2023-02-15T02:44:30.380Z,27.50
2023-02-15T02:45:30.385Z,24.40
2023-02-15T02:46:30.536Z,24.90
2023-02-15T02:47:30.324Z,23.80
2023-02-15T02:48:30.338Z,24.80
2023-02-15T02:49:30.312Z,25.00
2023-02-15T02:50:30.327Z,24.90
2023-02-15T02:51:30.582Z,24.70
2023-02-15T02:52:30.266Z,25.60
2023-02-15T02:53:30.295Z,25.90
2023-02-15T02:54:30.244Z,26.20
2023-02-15T02:55:30.228Z,24.20
2023-02-15T02:56:30.236Z,25.20
2023-02-15T02:57:30.209Z,26.50
2023-02-15T02:58:30.215Z,24.90
2023-02-15T02:59:30.186Z,22.00
2023-02-15T03:00:30.185Z,24.30
2023-02-15T03:01:30.211Z,25.60
2023-02-15T03:02:30.222Z,25.10
2023-02-15T03:03:30.157Z,25.30
2023-02-15T03:04:30.212Z,24.90
2023-02-15T03:05:30.133Z,25.60
2023-02-15T03:06:30.142Z,25.10
2023-02-15T03:07:30.104Z,21.50
2023-02-15T03:08:30.087Z,21.60
2023-02-15T03:09:30.091Z,26.50
2023-02-15T03:10:30.069Z,24.30
2023-02-15T03:11:30.072Z,26.20
2023-02-15T03:12:30.041Z,22.50
2023-02-15T03:13:30.041Z,24.40
2023-02-15T03:14:30.060Z,24.00
2023-02-15T03:15:30.014Z,26.70
2023-02-15T03:16:30.069Z,24.60
2023-02-15T03:17:30.005Z,24.30
2023-02-15T03:18:29.988Z,21.50
2023-02-15T03:19:29.960Z,24.20
2023-02-15T03:20:29.976Z,25.70
2023-02-15T03:21:29.953Z,25.20
2023-02-15T03:22:30.003Z,25.80
2023-02-15T03:23:29.929Z,23.60
2023-02-15T03:24:29.951Z,23.80
2023-02-15T03:25:29.909Z,28.30
2023-02-15T03:26:29.916Z,24.60
2023-02-15T03:27:29.884Z,25.10
2023-02-15T03:28:29.897Z,25.00
2023-02-15T03:29:29.960Z,24.20
2023-02-15T03:30:29.931Z,24.40
2023-02-15T03:31:31.369Z,26.80
2023-02-15T03:32:29.856Z,24.30
2023-02-15T03:33:29.837Z,22.50
2023-02-15T03:34:29.857Z,25.60
2023-02-15T03:35:29.841Z,26.00
2023-02-15T03:36:29.793Z,26.80
2023-02-15T03:37:31.218Z,28.10
2023-02-15T03:38:29.760Z,28.10
2023-02-15T03:39:29.795Z,25.20
2023-02-15T03:40:29.744Z,28.30
2023-02-15T03:41:29.764Z,25.90
2023-02-15T03:42:29.740Z,26.10
2023-02-15T03:43:29.753Z,28.20
2023-02-15T03:44:29.702Z,26.40
2023-02-15T03:45:29.709Z,27.30
2023-02-15T03:46:29.730Z,26.40
2023-02-15T03:47:29.665Z,28.60
2023-02-15T03:48:29.683Z,26.30
2023-02-15T03:49:29.646Z,26.80
2023-02-15T03:50:29.630Z,25.10
2023-02-15T03:51:29.644Z,27.10
2023-02-15T03:52:29.630Z,24.50
2023-02-15T03:53:29.689Z,28.10
2023-02-15T03:54:29.590Z,27.50
2023-02-15T03:55:29.632Z,24.90
2023-02-15T03:56:29.688Z,26.60
2023-02-15T03:57:30.556Z,26.40
2023-02-15T03:58:29.548Z,26.30
2023-02-15T03:59:29.548Z,24.20
2023-02-15T04:00:29.539Z,27.90
2023-02-15T04:01:29.553Z,24.90
2023-02-15T04:02:29.519Z,23.00
2023-02-15T04:03:29.498Z,24.00
2023-02-15T04:04:29.515Z,25.50
2023-02-15T04:05:29.518Z,26.60
2023-02-15T04:06:29.470Z,24.80
2023-02-15T04:07:29.451Z,25.00
2023-02-15T04:08:29.436Z,24.30
2023-02-15T04:09:29.426Z,24.60
2023-02-15T04:10:29.563Z,24.90
2023-02-15T04:11:29.432Z,26.00
2023-02-15T04:12:29.385Z,24.90
2023-02-15T04:13:29.562Z,26.60
2023-02-15T04:14:29.393Z,24.50
2023-02-15T04:15:29.362Z,27.10
2023-02-15T04:16:31.135Z,26.80
2023-02-15T04:17:29.334Z,27.00
2023-02-15T04:18:29.322Z,26.30
2023-02-15T04:19:29.349Z,27.60
2023-02-15T04:20:29.323Z,28.90
2023-02-15T04:21:29.313Z,27.50
2023-02-15T04:22:29.280Z,26.60
2023-02-15T04:23:29.292Z,30.20
2023-02-15T04:24:29.267Z,29.50
2023-02-15T04:25:29.321Z,29.00
2023-02-15T04:26:29.249Z,31.00
2023-02-15T04:27:30.191Z,30.50
2023-02-15T04:28:29.219Z,31.20
2023-02-15T04:29:29.211Z,28.10
2023-02-15T04:30:29.370Z,29.40
2023-02-15T04:31:29.258Z,29.90
2023-02-15T04:32:29.170Z,29.80
2023-02-15T04:33:29.171Z,29.60
2023-02-15T04:34:29.165Z,31.00
2023-02-15T04:35:29.151Z,28.90
2023-02-15T04:36:29.122Z,29.50
2023-02-15T04:37:29.280Z,31.70
2023-02-15T04:38:29.168Z,30.80
2023-02-15T04:39:29.123Z,29.20
2023-02-15T04:40:29.090Z,29.70
2023-02-15T04:41:29.077Z,33.10
2023-02-15T04:42:29.090Z,28.00
2023-02-15T04:43:29.060Z,29.30
2023-02-15T04:44:29.104Z,29.80
2023-02-15T04:45:29.098Z,33.50
2023-02-15T04:46:29.027Z,30.50
2023-02-15T04:47:29.013Z,27.50
2023-02-15T04:48:29.060Z,30.30
2023-02-15T04:49:28.985Z,29.30
2023-02-15T04:50:28.970Z,27.50
2023-02-15T04:51:28.965Z,26.40
2023-02-15T04:52:28.950Z,29.00
2023-02-15T04:53:28.966Z,29.00
2023-02-15T04:54:28.954Z,29.20
2023-02-15T04:55:28.923Z,29.90
2023-02-15T04:56:28.911Z,28.90
2023-02-15T04:57:28.907Z,25.80
2023-02-15T04:58:28.927Z,30.20
2023-02-15T04:59:28.880Z,26.70
2023-02-15T05:00:28.859Z,27.60
2023-02-15T05:01:28.994Z,29.60
2023-02-15T05:02:28.874Z,29.10
2023-02-15T05:03:28.842Z,30.60
2023-02-15T05:04:28.872Z,29.90
2023-02-15T05:05:28.814Z,26.30
2023-02-15T05:06:28.814Z,28.60
2023-02-15T05:07:28.815Z,28.40
2023-02-15T05:08:28.799Z,30.80
2023-02-15T05:09:28.820Z,29.70
2023-02-15T05:10:28.775Z,26.90
2023-02-15T05:11:28.744Z,27.80
2023-02-15T05:12:28.734Z,28.10
2023-02-15T05:13:28.730Z,30.80
2023-02-15T05:14:28.763Z,27.20
2023-02-15T05:15:28.702Z,29.70
2023-02-15T05:16:28.767Z,28.80
2023-02-15T05:17:28.700Z,26.00
2023-02-15T05:18:28.736Z,27.90
2023-02-15T05:19:28.697Z,27.60
2023-02-15T05:20:28.656Z,29.40
2023-02-15T05:21:28.636Z,27.60
2023-02-15T05:22:28.629Z,30.40
2023-02-15T05:23:28.609Z,28.90
2023-02-15T05:24:28.604Z,30.70
2023-02-15T05:25:28.617Z,34.20
2023-02-15T05:26:28.591Z,30.10
2023-02-15T05:27:28.585Z,29.20
2023-02-15T05:28:28.562Z,31.50
2023-02-15T05:29:28.593Z,31.40
2023-02-15T05:30:28.743Z,31.10
2023-02-15T05:31:28.922Z,31.10
2023-02-15T05:32:28.645Z,28.60
2023-02-15T05:33:28.514Z,28.80
2023-02-15T05:34:28.493Z,28.20
2023-02-15T05:35:28.504Z,28.50
2023-02-15T05:36:28.522Z,27.80
2023-02-15T05:37:28.474Z,29.20
2023-02-15T05:38:28.449Z,30.10
2023-02-15T05:39:28.446Z,30.40
2023-02-15T05:40:28.424Z,30.90
2023-02-15T05:41:28.434Z,30.60
2023-02-15T05:42:28.465Z,28.90
2023-02-15T05:43:28.409Z,32.80
2023-02-15T05:44:28.395Z,27.40
2023-02-15T05:45:28.407Z,29.40
2023-02-15T05:46:28.486Z,29.10
2023-02-15T05:47:28.376Z,28.50
2023-02-15T05:48:29.335Z,28.40
2023-02-15T05:49:28.356Z,28.70
2023-02-15T05:50:28.329Z,27.90
2023-02-15T05:51:28.356Z,30.30
2023-02-15T05:52:28.321Z,27.80
2023-02-15T05:53:28.334Z,32.20
2023-02-15T05:54:28.312Z,28.80
2023-02-15T05:55:28.313Z,25.80
2023-02-15T05:56:28.270Z,28.90
2023-02-15T05:57:28.328Z,29.50
2023-02-15T05:58:28.245Z,28.70
2023-02-15T05:59:28.273Z,31.30
2023-02-15T06:00:28.229Z,31.20
2023-02-15T06:01:28.236Z,31.10
2023-02-15T06:02:28.254Z,33.20
2023-02-15T06:03:28.244Z,29.60
2023-02-15T06:04:28.188Z,29.80
2023-02-15T06:05:28.169Z,30.40
2023-02-15T06:06:28.154Z,33.70
2023-02-15T06:07:28.150Z,30.20
2023-02-15T06:08:28.283Z,28.20
2023-02-15T06:09:28.141Z,31.90
2023-02-15T06:10:28.102Z,29.80
2023-02-15T06:11:28.095Z,30.10
2023-02-15T06:12:28.087Z,27.90
2023-02-15T06:13:28.091Z,29.10
2023-02-15T06:14:28.086Z,29.40
2023-02-15T06:15:28.100Z,34.70
2023-02-15T06:16:28.044Z,29.40
2023-02-15T06:17:28.096Z,31.90
2023-02-15T06:18:28.020Z,30.20
2023-02-15T06:19:28.023Z,30.80
2023-02-15T06:20:28.021Z,30.80
2023-02-15T06:21:27.986Z,31.80
2023-02-15T06:22:28.037Z,33.90
2023-02-15T06:23:27.975Z,30.70
2023-02-15T06:24:28.925Z,32.40
2023-02-15T06:25:27.963Z,31.40
2023-02-15T06:26:27.942Z,29.80
2023-02-15T06:27:27.957Z,31.30
2023-02-15T06:28:27.922Z,31.90
2023-02-15T06:29:27.962Z,30.60
2023-02-15T06:30:27.933Z,31.60
2023-02-15T06:31:27.959Z,27.50
2023-02-15T06:32:27.913Z,31.90
2023-02-15T06:33:27.877Z,30.50
2023-02-15T06:34:27.843Z,32.30
2023-02-15T06:35:27.846Z,32.90
2023-02-15T06:36:27.830Z,28.50
2023-02-15T06:37:27.839Z,26.70
2023-02-15T06:38:27.821Z,31.00
2023-02-15T06:39:27.803Z,28.40
2023-02-15T06:40:27.784Z,31.00
2023-02-15T06:41:27.779Z,28.50
2023-02-15T06:42:27.780Z,28.10
2023-02-15T06:43:27.807Z,29.70
2023-02-15T06:44:27.745Z,30.80
2023-02-15T06:45:27.742Z,31.20
2023-02-15T06:46:27.770Z,31.80
2023-02-15T06:47:27.708Z,29.70
2023-02-15T06:48:27.700Z,29.70
2023-02-15T06:49:27.708Z,29.70
2023-02-15T06:50:27.705Z,32.70
2023-02-15T06:51:27.699Z,30.00
2023-02-15T06:52:27.667Z,28.10
2023-02-15T06:53:27.647Z,29.30
2023-02-15T06:54:27.649Z,27.60
2023-02-15T06:55:27.638Z,29.00
2023-02-15T06:56:27.614Z,28.30
2023-02-15T06:57:27.610Z,29.40
2023-02-15T06:58:27.591Z,29.10
2023-02-15T06:59:27.600Z,27.20
2023-02-15T07:00:27.580Z,29.20
2023-02-15T07:01:27.648Z,27.40
2023-02-15T07:02:27.554Z,30.10
2023-02-15T07:03:27.538Z,29.70
2023-02-15T07:04:27.572Z,29.80
2023-02-15T07:05:27.520Z,27.10
2023-02-15T07:06:27.508Z,29.00
2023-02-15T07:07:27.559Z,27.10
2023-02-15T07:08:27.476Z,27.40
2023-02-15T07:09:27.480Z,28.70
2023-02-15T07:10:27.462Z,28.20
2023-02-15T07:11:27.452Z,27.30
2023-02-15T07:12:28.405Z,28.90
2023-02-15T07:13:27.446Z,27.50
2023-02-15T07:14:28.971Z,25.10
2023-02-15T07:15:27.405Z,27.90
2023-02-15T07:16:27.418Z,26.60
2023-02-15T07:17:35.357Z,27.80
2023-02-15T07:18:28.401Z,30.20
2023-02-15T07:19:27.362Z,26.90
2023-02-15T07:20:27.364Z,26.70
2023-02-15T07:21:27.489Z,28.40
2023-02-15T07:22:27.334Z,31.50
2023-02-15T07:23:27.305Z,25.80
2023-02-15T07:24:27.311Z,26.20
2023-02-15T07:25:27.305Z,25.30
2023-02-15T07:26:27.286Z,25.90
2023-02-15T07:27:27.307Z,26.90
2023-02-15T07:28:27.263Z,52.90
2023-02-15T07:29:27.260Z,32.30
2023-02-15T07:30:27.345Z,31.60
2023-02-15T07:31:27.240Z,26.40
2023-02-15T07:32:27.308Z,27.40
2023-02-15T07:33:27.201Z,25.40
2023-02-15T07:34:27.187Z,24.50
2023-02-15T07:35:27.194Z,28.30
2023-02-15T07:36:27.169Z,26.30
2023-02-15T07:37:27.190Z,26.50
2023-02-15T07:38:27.165Z,28.70
2023-02-15T07:39:27.146Z,25.70
2023-02-15T07:40:27.126Z,29.00
2023-02-15T07:41:27.173Z,30.30
2023-02-15T07:42:27.139Z,25.00
2023-02-15T07:43:27.109Z,26.60
2023-02-15T07:44:27.070Z,26.10
2023-02-15T07:45:27.094Z,28.70
2023-02-15T07:46:27.137Z,26.30
2023-02-15T07:47:27.089Z,25.50
2023-02-15T07:48:27.064Z,24.70
2023-02-15T07:49:27.029Z,26.40
2023-02-15T07:50:27.032Z,24.50
2023-02-15T07:51:27.008Z,30.30
2023-02-15T07:52:27.032Z,25.40
2023-02-15T07:53:26.998Z,30.60
2023-02-15T07:54:27.027Z,29.70
2023-02-15T07:55:27.017Z,81.70
2023-02-15T07:56:26.950Z,50.70
2023-02-15T07:57:26.940Z,26.50
2023-02-15T07:58:26.955Z,25.50
2023-02-15T07:59:26.922Z,27.20
2023-02-15T08:00:26.924Z,23.70
2023-02-15T08:01:26.927Z,25.70
2023-02-15T08:02:26.947Z,26.20
2023-02-15T08:03:26.920Z,25.60
2023-02-15T08:04:26.892Z,25.40
2023-02-15T08:05:26.852Z,24.90
2023-02-15T08:06:26.851Z,24.50
2023-02-15T08:07:26.853Z,24.50
2023-02-15T08:08:26.820Z,24.70
2023-02-15T08:09:26.884Z,21.10
2023-02-15T08:10:26.806Z,26.70
2023-02-15T08:11:26.807Z,91.80
2023-02-15T08:12:26.809Z,150.60
2023-02-15T08:13:26.787Z,23.30
2023-02-15T08:14:26.783Z,26.40
2023-02-15T08:15:26.776Z,24.90
2023-02-15T08:16:26.799Z,25.20
2023-02-15T08:17:26.761Z,26.80
2023-02-15T08:18:26.726Z,25.20
2023-02-15T08:19:26.732Z,24.90
2023-02-15T08:20:26.704Z,25.20
2023-02-15T08:21:26.691Z,25.20
2023-02-15T08:22:26.720Z,24.40
2023-02-15T08:23:26.673Z,25.00
2023-02-15T08:24:26.670Z,23.70
2023-02-15T08:25:26.645Z,25.40
2023-02-15T08:26:26.655Z,22.70
2023-02-15T08:27:26.625Z,23.70
2023-02-15T08:28:26.644Z,26.60
2023-02-15T08:29:26.589Z,25.20
2023-02-15T08:30:26.649Z,21.80
2023-02-15T08:31:26.640Z,23.60
2023-02-15T08:32:26.670Z,23.30
2023-02-15T08:33:26.632Z,23.60
2023-02-15T08:34:26.570Z,24.40
2023-02-15T08:35:26.539Z,23.60
2023-02-15T08:36:26.536Z,23.30
2023-02-15T08:37:26.517Z,21.80
2023-02-15T08:38:26.504Z,23.80
2023-02-15T08:39:26.505Z,22.40
2023-02-15T08:40:26.496Z,23.30
2023-02-15T08:41:26.478Z,22.20
2023-02-15T08:42:26.505Z,21.00
2023-02-15T08:43:26.447Z,21.10
2023-02-15T08:44:26.447Z,23.30
2023-02-15T08:45:26.515Z,21.10
2023-02-15T08:46:26.415Z,21.40
2023-02-15T08:47:26.396Z,20.00
2023-02-15T08:48:26.441Z,20.60
2023-02-15T08:49:26.384Z,20.40
2023-02-15T08:50:26.388Z,21.20
2023-02-15T08:51:26.368Z,21.80
2023-02-15T08:52:26.363Z,20.40
2023-02-15T08:53:26.330Z,21.90
2023-02-15T08:54:26.351Z,21.90
2023-02-15T08:55:26.380Z,18.10
2023-02-15T08:56:26.298Z,20.00
2023-02-15T08:57:26.327Z,18.10
2023-02-15T08:58:26.291Z,19.80
2023-02-15T08:59:26.265Z,20.20
2023-02-15T09:00:26.261Z,19.70
2023-02-15T09:01:26.274Z,18.30
2023-02-15T09:02:26.316Z,21.60
2023-02-15T09:03:26.262Z,19.90
2023-02-15T09:04:26.223Z,18.30
2023-02-15T09:05:26.200Z,18.20
2023-02-15T09:06:26.200Z,19.40
2023-02-15T09:07:26.199Z,21.10
2023-02-15T09:08:26.189Z,19.80
2023-02-15T09:09:26.188Z,18.10
2023-02-15T09:10:26.246Z,17.90
2023-02-15T09:11:26.138Z,18.80
2023-02-15T09:12:26.181Z,18.10
2023-02-15T09:13:26.123Z,16.60
2023-02-15T09:14:26.126Z,17.30
2023-02-15T09:15:26.080Z,18.90
2023-02-15T09:16:26.144Z,21.30
2023-02-15T09:17:26.132Z,18.90
2023-02-15T09:18:26.082Z,18.10
2023-02-15T09:19:26.101Z,18.60
2023-02-15T09:20:26.068Z,21.00
2023-02-15T09:21:26.023Z,17.90
2023-02-15T09:22:26.013Z,17.90
2023-02-15T09:23:27.205Z,17.60
2023-02-15T09:24:25.994Z,17.90
2023-02-15T09:25:26.009Z,17.70
2023-02-15T09:26:25.992Z,16.40
2023-02-15T09:27:26.916Z,18.70
2023-02-15T09:28:25.969Z,18.90
2023-02-15T09:29:25.991Z,18.20
2023-02-15T09:30:26.078Z,18.80
2023-02-15T09:31:26.044Z,18.50
2023-02-15T09:32:25.912Z,20.80
2023-02-15T09:33:25.894Z,18.90
2023-02-15T09:34:25.885Z,16.90
2023-02-15T09:35:25.893Z,20.20
2023-02-15T09:36:25.881Z,18.60
2023-02-15T09:37:25.852Z,21.20
2023-02-15T09:38:25.848Z,19.80
2023-02-15T09:39:25.845Z,17.90
2023-02-15T09:40:25.850Z,18.00
2023-02-15T09:41:25.805Z,17.00
2023-02-15T09:42:25.802Z,18.00
2023-02-15T09:43:25.790Z,19.30
2023-02-15T09:44:25.793Z,17.60
2023-02-15T09:45:25.756Z,15.90
2023-02-15T09:46:25.758Z,18.80
2023-02-15T09:47:25.781Z,18.50
2023-02-15T09:48:25.732Z,19.80
2023-02-15T09:49:25.743Z,17.40
2023-02-15T09:50:25.732Z,18.30
2023-02-15T09:51:25.743Z,17.20
2023-02-15T09:52:25.679Z,18.90
2023-02-15T09:53:25.699Z,17.20
2023-02-15T09:54:25.669Z,18.20
2023-02-15T09:55:25.677Z,18.00
2023-02-15T09:56:25.647Z,18.00
2023-02-15T09:57:25.644Z,18.60
2023-02-15T09:58:25.611Z,17.80
2023-02-15T09:59:25.610Z,17.10
2023-02-15T10:00:25.588Z,17.10
2023-02-15T10:01:25.736Z,16.90
2023-02-15T10:02:25.593Z,19.00
2023-02-15T10:03:25.561Z,16.20
2023-02-15T10:04:25.577Z,16.90
2023-02-15T10:05:25.542Z,16.00
2023-02-15T10:06:25.573Z,17.40
2023-02-15T10:07:25.513Z,15.70
2023-02-15T10:08:25.501Z,18.30
2023-02-15T10:09:25.507Z,16.70
2023-02-15T10:10:25.503Z,17.00
2023-02-15T10:11:25.507Z,17.30
2023-02-15T10:12:25.537Z,17.30
2023-02-15T10:13:25.443Z,18.40
2023-02-15T10:14:25.461Z,17.30
2023-02-15T10:15:25.437Z,15.70
2023-02-15T10:16:25.519Z,17.10
2023-02-15T10:17:25.404Z,16.60
2023-02-15T10:18:25.437Z,17.40
2023-02-15T10:19:26.628Z,16.90
2023-02-15T10:20:25.380Z,17.00
2023-02-15T10:21:25.389Z,18.20
2023-02-15T10:22:25.373Z,14.40
2023-02-15T10:23:46.352Z,17.70
2023-02-15T10:24:25.388Z,16.90
2023-02-15T10:25:25.334Z,16.40
2023-02-15T10:26:25.337Z,15.30
2023-02-15T10:27:25.290Z,15.90
2023-02-15T10:28:25.319Z,16.10
2023-02-15T10:29:25.294Z,15.20
2023-02-15T10:30:25.332Z,15.20
2023-02-15T10:31:25.379Z,15.20
2023-02-15T10:32:25.334Z,15.60
2023-02-15T10:33:25.253Z,16.80
2023-02-15T10:34:25.227Z,17.10
2023-02-15T10:35:25.228Z,15.80
2023-02-15T10:36:25.255Z,16.50
2023-02-15T10:37:25.186Z,14.20
2023-02-15T10:38:25.194Z,16.80
2023-02-15T10:39:25.170Z,14.60
2023-02-15T10:40:25.151Z,19.00
2023-02-15T10:41:25.150Z,15.30
2023-02-15T10:42:25.179Z,16.70
2023-02-15T10:43:25.124Z,14.40
2023-02-15T10:44:25.124Z,16.30
2023-02-15T10:45:25.099Z,15.40
2023-02-15T10:46:25.177Z,15.20
2023-02-15T10:47:25.086Z,17.00
2023-02-15T10:48:25.105Z,17.10
2023-02-15T10:49:25.063Z,16.20
2023-02-15T10:50:25.057Z,14.90
2023-02-15T10:51:25.021Z,16.10
2023-02-15T10:52:25.033Z,18.70
2023-02-15T10:53:25.063Z,17.70
2023-02-15T10:54:25.034Z,14.10
2023-02-15T10:55:24.991Z,16.90
2023-02-15T10:56:24.990Z,16.10
2023-02-15T10:57:24.984Z,17.40
2023-02-15T10:58:25.007Z,16.00
2023-02-15T10:59:24.949Z,15.30
2023-02-15T11:00:24.936Z,18.00
2023-02-15T11:01:24.996Z,16.20
2023-02-15T11:02:24.925Z,14.90
2023-02-15T11:03:24.907Z,15.20
2023-02-15T11:04:24.905Z,14.10
2023-02-15T11:05:24.913Z,14.90
2023-02-15T11:06:24.873Z,15.10
2023-02-15T11:07:24.868Z,16.40
2023-02-15T11:08:24.857Z,13.70
2023-02-15T11:09:24.849Z,14.60
2023-02-15T11:10:24.857Z,16.30
2023-02-15T11:11:24.828Z,17.30
2023-02-15T11:12:24.813Z,13.80
2023-02-15T11:13:24.835Z,14.90
2023-02-15T11:14:24.809Z,13.90
2023-02-15T11:15:24.765Z,15.00
2023-02-15T11:16:24.762Z,16.20
2023-02-15T11:17:24.746Z,15.40
2023-02-15T11:18:24.742Z,17.10
2023-02-15T11:19:24.750Z,13.60
2023-02-15T11:20:24.723Z,16.10
2023-02-15T11:21:24.734Z,15.00
2023-02-15T11:22:24.695Z,19.80
2023-02-15T11:23:24.670Z,17.70
2023-02-15T11:24:24.688Z,16.20
2023-02-15T11:25:24.663Z,14.30
2023-02-15T11:26:24.685Z,16.10
2023-02-15T11:27:24.674Z,14.60
2023-02-15T11:28:24.630Z,13.60
2023-02-15T11:29:24.645Z,12.60
2023-02-15T11:30:24.623Z,14.30
2023-02-15T11:31:24.677Z,14.00
2023-02-15T11:32:24.637Z,13.10
2023-02-15T11:33:24.570Z,14.60
2023-02-15T11:34:24.572Z,13.00
2023-02-15T11:35:24.578Z,16.40
2023-02-15T11:36:24.540Z,14.60
2023-02-15T11:37:24.528Z,16.30
2023-02-15T11:38:24.539Z,14.40
2023-02-15T11:39:24.546Z,14.90
2023-02-15T11:40:24.524Z,16.40
2023-02-15T11:41:24.502Z,16.20
2023-02-15T11:42:24.473Z,16.60
2023-02-15T11:43:24.475Z,14.60
2023-02-15T11:44:24.451Z,14.60
2023-02-15T11:45:24.455Z,14.50
2023-02-15T11:46:24.511Z,15.70
2023-02-15T11:47:24.414Z,15.40
2023-02-15T11:48:24.420Z,14.20
2023-02-15T11:49:24.390Z,15.20
2023-02-15T11:50:24.390Z,14.90
2023-02-15T11:51:24.544Z,14.60
2023-02-15T11:52:24.365Z,16.60
2023-02-15T11:53:24.342Z,14.10
2023-02-15T11:54:24.361Z,14.80
2023-02-15T11:55:24.341Z,16.10
2023-02-15T11:56:24.332Z,16.50
2023-02-15T11:57:24.307Z,13.20
2023-02-15T11:58:24.330Z,19.10
2023-02-15T11:59:24.282Z,15.70
2023-02-15T12:00:24.279Z,15.90
2023-02-15T12:01:24.271Z,16.80
2023-02-15T12:02:24.311Z,15.60
2023-02-15T12:03:24.237Z,14.40
2023-02-15T12:04:24.277Z,13.70
2023-02-15T12:05:24.208Z,16.30
2023-02-15T12:06:24.184Z,15.40
2023-02-15T12:07:24.184Z,16.10
2023-02-15T12:08:24.241Z,14.40
2023-02-15T12:09:24.163Z,15.60
2023-02-15T12:10:24.174Z,15.60
2023-02-15T12:11:24.146Z,16.00
2023-02-15T12:12:24.148Z,15.60
2023-02-15T12:13:24.122Z,13.50
2023-02-15T12:14:24.114Z,14.20
2023-02-15T12:15:24.136Z,15.00
2023-02-15T12:16:24.136Z,15.50
2023-02-15T12:17:24.099Z,15.00
2023-02-15T12:18:24.068Z,14.20
2023-02-15T12:19:24.048Z,16.40
2023-02-15T12:20:24.039Z,12.70
2023-02-15T12:21:24.077Z,13.30
2023-02-15T12:22:24.017Z,12.50
2023-02-15T12:23:24.007Z,14.80
2023-02-15T12:24:23.989Z,15.50
2023-02-15T12:25:23.990Z,14.00
2023-02-15T12:26:23.978Z,14.90
2023-02-15T12:27:24.012Z,12.70
2023-02-15T12:28:23.952Z,13.90
2023-02-15T12:29:24.144Z,12.60
2023-02-15T12:30:23.975Z,14.30
2023-02-15T12:31:23.987Z,12.50
2023-02-15T12:32:23.979Z,11.30
2023-02-15T12:33:23.897Z,13.50
2023-02-15T12:34:23.898Z,13.30
2023-02-15T12:35:23.895Z,12.80
2023-02-15T12:36:23.893Z,11.90
2023-02-15T12:37:23.858Z,11.80
2023-02-15T12:38:23.830Z,14.70
2023-02-15T12:39:23.862Z,12.70
2023-02-15T12:40:23.846Z,11.50
2023-02-15T12:41:23.821Z,12.90
2023-02-15T12:42:23.804Z,12.40
2023-02-15T12:43:23.792Z,16.30
2023-02-15T12:44:23.795Z,12.00
2023-02-15T12:45:23.775Z,14.50
2023-02-15T12:46:23.789Z,14.00
2023-02-15T12:47:28.853Z,13.70
2023-02-15T12:48:24.747Z,12.50
2023-02-15T12:49:24.669Z,12.70
2023-02-15T12:50:23.726Z,13.20
2023-02-15T12:51:23.695Z,12.20
2023-02-15T12:52:23.697Z,12.90